sensor_id;sensor_type;location;lat;lon;timestamp;P1;durP1;ratioP1;P2;durP2;ratioP2
14251;SDS011;7210;51.502;10.722;2023-09-08T00:06:32;8.90;;;8.20;;
14251;SDS011;7210;51.502;10.722;2023-09-08T00:13:05;13.47;;;8.43;;
14251;SDS011;7210;51.502;10.722;2023-09-08T00:19:39;9.13;;;8.33;;
14251;SDS011;7210;51.502;10.722;2023-09-08T00:26:15;8.03;;;7.20;;
14251;SDS011;7210;51.502;10.722;2023-09-08T00:32:49;8.10;;;7.40;;
14251;SDS011;7210;51.502;10.722;2023-09-08T00:39:23;6.63;;;5.97;;
14251;SDS011;7210;51.502;10.722;2023-09-08T00:45:59;6.50;;;5.90;;
14251;SDS011;7210;51.502;10.722;2023-09-08T00:52:34;7.87;;;6.87;;
14251;SDS011;7210;51.502;10.722;2023-09-08T01:03:16;8.93;;;6.93;;
14251;SDS011;7210;51.502;10.722;2023-09-08T01:09:49;7.57;;;6.97;;
14251;SDS011;7210;51.502;10.722;2023-09-08T01:16:23;7.87;;;7.17;;
14251;SDS011;7210;51.502;10.722;2023-09-08T01:23:15;8.00;;;7.30;;
14251;SDS011;7210;51.502;10.722;2023-09-08T01:29:56;8.50;;;7.80;;
14251;SDS011;7210;51.502;10.722;2023-09-08T01:36:32;8.27;;;6.63;;
14251;SDS011;7210;51.502;10.722;2023-09-08T01:43:07;8.00;;;7.20;;
14251;SDS011;7210;51.502;10.722;2023-09-08T01:49:43;7.10;;;6.40;;
14251;SDS011;7210;51.502;10.722;2023-09-08T01:56:16;8.70;;;7.10;;
14251;SDS011;7210;51.502;10.722;2023-09-08T02:02:50;6.70;;;6.20;;
14251;SDS011;7210;51.502;10.722;2023-09-08T02:09:31;7.50;;;6.77;;
14251;SDS011;7210;51.502;10.722;2023-09-08T02:16:05;8.33;;;7.53;;
14251;SDS011;7210;51.502;10.722;2023-09-08T02:22:39;7.50;;;6.80;;
14251;SDS011;7210;51.502;10.722;2023-09-08T02:29:14;7.53;;;6.87;;
14251;SDS011;7210;51.502;10.722;2023-09-08T02:35:49;6.97;;;6.37;;
14251;SDS011;7210;51.502;10.722;2023-09-08T02:42:24;8.03;;;7.27;;
14251;SDS011;7210;51.502;10.722;2023-09-08T02:49:10;8.20;;;7.50;;
14251;SDS011;7210;51.502;10.722;2023-09-08T02:56:03;6.57;;;5.97;;
14251;SDS011;7210;51.502;10.722;2023-09-08T03:02:37;6.70;;;6.10;;
14251;SDS011;7210;51.502;10.722;2023-09-08T03:09:13;6.80;;;6.00;;
14251;SDS011;7210;51.502;10.722;2023-09-08T03:15:47;6.80;;;6.10;;
14251;SDS011;7210;51.502;10.722;2023-09-08T03:22:21;5.33;;;4.83;;
14251;SDS011;7210;51.502;10.722;2023-09-08T03:28:57;5.50;;;5.00;;
14251;SDS011;7210;51.502;10.722;2023-09-08T03:35:31;7.80;;;5.43;;
14251;SDS011;7210;51.502;10.722;2023-09-08T03:42:05;7.63;;;5.20;;
14251;SDS011;7210;51.502;10.722;2023-09-08T03:48:41;7.00;;;6.30;;
14251;SDS011;7210;51.502;10.722;2023-09-08T03:55:15;5.40;;;5.00;;
14251;SDS011;7210;51.502;10.722;2023-09-08T03:57:43;5.43;;;5.03;;
14251;SDS011;7210;51.502;10.722;2023-09-08T04:00:11;5.60;;;5.20;;
14251;SDS011;7210;51.502;10.722;2023-09-08T04:06:52;6.73;;;6.13;;
14251;SDS011;7210;51.502;10.722;2023-09-08T04:13:26;6.87;;;6.27;;
14251;SDS011;7210;51.502;10.722;2023-09-08T04:20:00;6.73;;;6.13;;
14251;SDS011;7210;51.502;10.722;2023-09-08T04:26:37;7.23;;;6.63;;
14251;SDS011;7210;51.502;10.722;2023-09-08T04:33:11;8.10;;;7.40;;
14251;SDS011;7210;51.502;10.722;2023-09-08T04:39:45;10.90;;;7.17;;
14251;SDS011;7210;51.502;10.722;2023-09-08T04:46:20;6.60;;;6.00;;
14251;SDS011;7210;51.502;10.722;2023-09-08T04:52:54;5.33;;;4.80;;
14251;SDS011;7210;51.502;10.722;2023-09-08T04:59:28;8.03;;;5.60;;
14251;SDS011;7210;51.502;10.722;2023-09-08T05:06:03;5.70;;;5.20;;
14251;SDS011;7210;51.502;10.722;2023-09-08T05:12:37;6.30;;;5.80;;
14251;SDS011;7210;51.502;10.722;2023-09-08T05:19:11;7.63;;;6.10;;
14251;SDS011;7210;51.502;10.722;2023-09-08T05:25:48;8.17;;;7.37;;
14251;SDS011;7210;51.502;10.722;2023-09-08T05:32:23;7.33;;;6.63;;
14251;SDS011;7210;51.502;10.722;2023-09-08T05:38:57;8.13;;;7.33;;
14251;SDS011;7210;51.502;10.722;2023-09-08T05:45:33;8.30;;;7.53;;
14251;SDS011;7210;51.502;10.722;2023-09-08T05:52:07;8.47;;;7.60;;
14251;SDS011;7210;51.502;10.722;2023-09-08T06:02:50;8.70;;;7.90;;
14251;SDS011;7210;51.502;10.722;2023-09-08T06:09:24;9.10;;;8.20;;
14251;SDS011;7210;51.502;10.722;2023-09-08T06:20:08;8.97;;;8.10;;
14251;SDS011;7210;51.502;10.722;2023-09-08T06:26:45;10.53;;;9.53;;
14251;SDS011;7210;51.502;10.722;2023-09-08T06:33:19;10.57;;;9.57;;
14251;SDS011;7210;51.502;10.722;2023-09-08T06:39:56;9.70;;;8.90;;
14251;SDS011;7210;51.502;10.722;2023-09-08T06:42:28;12.40;;;11.10;;
14251;SDS011;7210;51.502;10.722;2023-09-08T06:45:06;12.27;;;11.07;;
14251;SDS011;7210;51.502;10.722;2023-09-08T07:03:01;11.53;;;10.37;;
14251;SDS011;7210;51.502;10.722;2023-09-08T07:09:35;13.47;;;12.20;;
14251;SDS011;7210;51.502;10.722;2023-09-08T07:20:18;13.30;;;11.87;;
14251;SDS011;7210;51.502;10.722;2023-09-08T07:26:53;14.83;;;13.20;;
14251;SDS011;7210;51.502;10.722;2023-09-08T07:46:56;15.93;;;12.70;;
14251;SDS011;7210;51.502;10.722;2023-09-08T08:00:01;13.30;;;12.10;;
14251;SDS011;7210;51.502;10.722;2023-09-08T08:06:44;13.70;;;12.40;;
14251;SDS011;7210;51.502;10.722;2023-09-08T08:13:20;13.10;;;11.63;;
14251;SDS011;7210;51.502;10.722;2023-09-08T08:19:54;12.33;;;10.67;;
14251;SDS011;7210;51.502;10.722;2023-09-08T08:26:30;11.37;;;10.17;;
14251;SDS011;7210;51.502;10.722;2023-09-08T08:33:06;9.57;;;8.53;;
14251;SDS011;7210;51.502;10.722;2023-09-08T08:39:40;10.77;;;9.63;;
14251;SDS011;7210;51.502;10.722;2023-09-08T08:46:13;10.50;;;9.40;;
14251;SDS011;7210;51.502;10.722;2023-09-08T08:52:53;10.87;;;8.37;;
14251;SDS011;7210;51.502;10.722;2023-09-08T08:59:27;10.40;;;9.40;;
14251;SDS011;7210;51.502;10.722;2023-09-08T09:06:02;8.93;;;7.97;;
14251;SDS011;7210;51.502;10.722;2023-09-08T09:12:39;7.93;;;7.13;;
14251;SDS011;7210;51.502;10.722;2023-09-08T09:19:17;7.67;;;6.87;;
14251;SDS011;7210;51.502;10.722;2023-09-08T09:25:58;9.63;;;6.53;;
14251;SDS011;7210;51.502;10.722;2023-09-08T09:32:37;6.30;;;5.80;;
14251;SDS011;7210;51.502;10.722;2023-09-08T09:39:12;6.20;;;5.60;;
14251;SDS011;7210;51.502;10.722;2023-09-08T09:49:29;7.93;;;6.25;;
14251;SDS011;7210;51.502;10.722;2023-09-08T09:59:43;6.27;;;5.63;;
14251;SDS011;7210;51.502;10.722;2023-09-08T10:06:21;5.90;;;5.40;;
14251;SDS011;7210;51.502;10.722;2023-09-08T10:16:32;7.07;;;5.32;;
14251;SDS011;7210;51.502;10.722;2023-09-08T10:23:12;5.40;;;4.90;;
14251;SDS011;7210;51.502;10.722;2023-09-08T10:29:13;5.72;;;5.22;;
14251;SDS011;7210;51.502;10.722;2023-09-08T10:35:47;5.90;;;4.65;;
14251;SDS011;7210;51.502;10.722;2023-09-08T10:42:24;5.22;;;4.82;;
14251;SDS011;7210;51.502;10.722;2023-09-08T10:49:03;5.47;;;4.93;;
14251;SDS011;7210;51.502;10.722;2023-09-08T11:02:49;5.28;;;4.78;;
14251;SDS011;7210;51.502;10.722;2023-09-08T11:09:23;8.75;;;4.75;;
14251;SDS011;7210;51.502;10.722;2023-09-08T11:15:57;5.75;;;4.93;;
14251;SDS011;7210;51.502;10.722;2023-09-08T11:26:39;4.72;;;4.22;;
14251;SDS011;7210;51.502;10.722;2023-09-08T11:33:17;5.72;;;4.10;;
14251;SDS011;7210;51.502;10.722;2023-09-08T11:39:56;5.03;;;4.43;;
14251;SDS011;7210;51.502;10.722;2023-09-08T11:45:41;5.35;;;3.95;;
14251;SDS011;7210;51.502;10.722;2023-09-08T11:58:16;5.60;;;4.20;;
14251;SDS011;7210;51.502;10.722;2023-09-08T12:04:23;4.47;;;4.07;;
14251;SDS011;7210;51.502;10.722;2023-09-08T12:33:54;6.65;;;4.32;;
14251;SDS011;7210;51.502;10.722;2023-09-08T12:40:28;5.75;;;3.97;;
14251;SDS011;7210;51.502;10.722;2023-09-08T12:56:45;4.28;;;3.92;;
14251;SDS011;7210;51.502;10.722;2023-09-08T12:59:23;10.20;;;4.25;;
14251;SDS011;7210;51.502;10.722;2023-09-08T13:02:05;6.57;;;3.92;;
14251;SDS011;7210;51.502;10.722;2023-09-08T13:04:47;4.88;;;3.97;;
14251;SDS011;7210;51.502;10.722;2023-09-08T13:29:05;6.38;;;4.20;;
14251;SDS011;7210;51.502;10.722;2023-09-08T13:39:47;5.10;;;3.80;;
14251;SDS011;7210;51.502;10.722;2023-09-08T13:58:42;4.80;;;3.85;;
14251;SDS011;7210;51.502;10.722;2023-09-08T14:07:55;4.78;;;4.38;;
14251;SDS011;7210;51.502;10.722;2023-09-08T14:17:16;4.88;;;3.53;;
14251;SDS011;7210;51.502;10.722;2023-09-08T14:23:50;6.78;;;3.78;;
14251;SDS011;7210;51.502;10.722;2023-09-08T14:30:23;3.97;;;3.65;;
14251;SDS011;7210;51.502;10.722;2023-09-08T14:41:05;4.10;;;3.70;;
14251;SDS011;7210;51.502;10.722;2023-09-08T14:47:38;5.68;;;3.92;;
14251;SDS011;7210;51.502;10.722;2023-09-08T14:54:12;5.68;;;4.85;;
14251;SDS011;7210;51.502;10.722;2023-09-08T14:59:45;8.18;;;4.38;;
14251;SDS011;7210;51.502;10.722;2023-09-08T15:10:25;4.05;;;3.70;;
14251;SDS011;7210;51.502;10.722;2023-09-08T15:20:15;4.22;;;3.80;;
14251;SDS011;7210;51.502;10.722;2023-09-08T15:26:59;6.40;;;4.20;;
14251;SDS011;7210;51.502;10.722;2023-09-08T15:33:49;4.72;;;3.80;;
14251;SDS011;7210;51.502;10.722;2023-09-08T15:40:22;4.78;;;4.22;;
14251;SDS011;7210;51.502;10.722;2023-09-08T15:47:03;5.13;;;4.03;;
14251;SDS011;7210;51.502;10.722;2023-09-08T15:53:39;7.72;;;4.57;;
14251;SDS011;7210;51.502;10.722;2023-09-08T15:59:43;5.20;;;4.10;;
14251;SDS011;7210;51.502;10.722;2023-09-08T16:02:17;7.03;;;4.35;;
14251;SDS011;7210;51.502;10.722;2023-09-08T16:08:52;6.82;;;4.32;;
14251;SDS011;7210;51.502;10.722;2023-09-08T16:15:27;8.52;;;7.15;;
14251;SDS011;7210;51.502;10.722;2023-09-08T16:22:00;15.32;;;14.00;;
14251;SDS011;7210;51.502;10.722;2023-09-08T16:28:37;9.45;;;7.60;;
14251;SDS011;7210;51.502;10.722;2023-09-08T16:35:11;9.35;;;6.22;;
14251;SDS011;7210;51.502;10.722;2023-09-08T16:41:45;7.10;;;5.40;;
14251;SDS011;7210;51.502;10.722;2023-09-08T16:48:21;26.92;;;12.15;;
14251;SDS011;7210;51.502;10.722;2023-09-08T16:54:55;7.93;;;6.13;;
14251;SDS011;7210;51.502;10.722;2023-09-08T17:01:29;5.88;;;5.30;;
14251;SDS011;7210;51.502;10.722;2023-09-08T17:11:28;7.15;;;4.85;;
14251;SDS011;7210;51.502;10.722;2023-09-08T17:18:08;5.88;;;4.90;;
14251;SDS011;7210;51.502;10.722;2023-09-08T17:24:44;8.70;;;5.07;;
14251;SDS011;7210;51.502;10.722;2023-09-08T17:31:18;7.15;;;6.00;;
14251;SDS011;7210;51.502;10.722;2023-09-08T17:37:52;7.68;;;5.55;;
14251;SDS011;7210;51.502;10.722;2023-09-08T17:44:28;6.47;;;5.13;;
14251;SDS011;7210;51.502;10.722;2023-09-08T17:51:01;11.15;;;6.57;;
14251;SDS011;7210;51.502;10.722;2023-09-08T17:57:35;5.55;;;4.88;;
14251;SDS011;7210;51.502;10.722;2023-09-08T18:04:11;7.65;;;5.65;;
14251;SDS011;7210;51.502;10.722;2023-09-08T18:13:59;6.80;;;5.67;;
14251;SDS011;7210;51.502;10.722;2023-09-08T18:20:34;7.00;;;6.20;;
14251;SDS011;7210;51.502;10.722;2023-09-08T18:27:07;7.93;;;6.10;;
14251;SDS011;7210;51.502;10.722;2023-09-08T18:33:41;9.63;;;5.50;;
14251;SDS011;7210;51.502;10.722;2023-09-08T18:40:17;6.37;;;5.70;;
14251;SDS011;7210;51.502;10.722;2023-09-08T18:46:50;7.17;;;5.43;;
14251;SDS011;7210;51.502;10.722;2023-09-08T18:53:24;8.63;;;6.73;;
14251;SDS011;7210;51.502;10.722;2023-09-08T19:00:01;8.57;;;6.67;;
14251;SDS011;7210;51.502;10.722;2023-09-08T19:10:42;7.80;;;6.80;;
14251;SDS011;7210;51.502;10.722;2023-09-08T19:17:18;7.33;;;6.70;;
14251;SDS011;7210;51.502;10.722;2023-09-08T19:23:51;9.60;;;7.47;;
14251;SDS011;7210;51.502;10.722;2023-09-08T19:30:25;8.67;;;7.30;;
14251;SDS011;7210;51.502;10.722;2023-09-08T19:37:00;7.23;;;6.37;;
14251;SDS011;7210;51.502;10.722;2023-09-08T19:43:34;7.20;;;6.53;;
14251;SDS011;7210;51.502;10.722;2023-09-08T19:50:08;9.97;;;7.80;;
14251;SDS011;7210;51.502;10.722;2023-09-08T19:56:43;8.40;;;7.53;;
14251;SDS011;7210;51.502;10.722;2023-09-08T20:03:17;8.13;;;7.33;;
14251;SDS011;7210;51.502;10.722;2023-09-08T20:14:00;8.23;;;7.53;;
14251;SDS011;7210;51.502;10.722;2023-09-08T20:20:34;8.17;;;7.47;;
14251;SDS011;7210;51.502;10.722;2023-09-08T20:27:08;8.53;;;7.83;;
14251;SDS011;7210;51.502;10.722;2023-09-08T20:33:44;9.00;;;8.10;;
14251;SDS011;7210;51.502;10.722;2023-09-08T20:40:19;9.33;;;8.47;;
14251;SDS011;7210;51.502;10.722;2023-09-08T20:46:53;9.90;;;8.90;;
14251;SDS011;7210;51.502;10.722;2023-09-08T20:53:28;9.10;;;8.30;;
14251;SDS011;7210;51.502;10.722;2023-09-08T20:59:42;9.83;;;8.70;;
14251;SDS011;7210;51.502;10.722;2023-09-08T21:06:15;9.37;;;8.47;;
14251;SDS011;7210;51.502;10.722;2023-09-08T21:12:51;8.93;;;8.00;;
14251;SDS011;7210;51.502;10.722;2023-09-08T21:19:25;10.47;;;7.87;;
14251;SDS011;7210;51.502;10.722;2023-09-08T21:26:03;8.20;;;7.40;;
14251;SDS011;7210;51.502;10.722;2023-09-08T21:32:39;7.27;;;6.40;;
14251;SDS011;7210;51.502;10.722;2023-09-08T21:39:12;8.77;;;7.60;;
14251;SDS011;7210;51.502;10.722;2023-09-08T21:45:46;11.23;;;8.37;;
14251;SDS011;7210;51.502;10.722;2023-09-08T21:52:24;9.70;;;7.90;;
14251;SDS011;7210;51.502;10.722;2023-09-08T22:03:05;8.57;;;7.77;;
14251;SDS011;7210;51.502;10.722;2023-09-08T22:09:41;10.43;;;8.43;;
14251;SDS011;7210;51.502;10.722;2023-09-08T22:20:21;8.83;;;7.77;;
14251;SDS011;7210;51.502;10.722;2023-09-08T22:26:56;8.17;;;7.50;;
14251;SDS011;7210;51.502;10.722;2023-09-08T22:33:30;8.43;;;7.53;;
14251;SDS011;7210;51.502;10.722;2023-09-08T22:40:04;8.23;;;7.33;;
14251;SDS011;7210;51.502;10.722;2023-09-08T22:46:41;8.00;;;7.30;;
14251;SDS011;7210;51.502;10.722;2023-09-08T22:53:15;7.20;;;6.37;;
14251;SDS011;7210;51.502;10.722;2023-09-08T22:59:49;7.30;;;6.60;;
14251;SDS011;7210;51.502;10.722;2023-09-08T23:06:24;7.80;;;7.00;;
14251;SDS011;7210;51.502;10.722;2023-09-08T23:12:58;7.70;;;6.90;;
14251;SDS011;7210;51.502;10.722;2023-09-08T23:23:40;6.07;;;5.47;;
14251;SDS011;7210;51.502;10.722;2023-09-08T23:30:13;5.60;;;5.10;;
14251;SDS011;7210;51.502;10.722;2023-09-08T23:36:46;9.10;;;8.20;;
14251;SDS011;7210;51.502;10.722;2023-09-08T23:43:21;15.37;;;12.23;;
14251;SDS011;7210;51.502;10.722;2023-09-08T23:49:55;11.90;;;10.07;;
14251;SDS011;7210;51.502;10.722;2023-09-08T23:56:31;10.40;;;8.50;;
